createdAt,value
2022-11-15T00:05:00.429Z,19.93
2022-11-15T00:11:55.938Z,19.87
2022-11-15T00:19:09.052Z,19.74
2022-11-15T00:26:17.026Z,19.72
2022-11-15T00:33:24.571Z,19.79
2022-11-15T00:40:26.349Z,19.85
2022-11-15T00:47:40.380Z,19.88
2022-11-15T00:54:51.824Z,19.96
2022-11-15T01:01:56.927Z,20.04
2022-11-15T01:09:14.035Z,20.14
2022-11-15T01:16:15.775Z,20.13
2022-11-15T01:23:25.748Z,20.19
2022-11-15T01:30:37.955Z,20.08
2022-11-15T01:37:48.793Z,19.97
2022-11-15T01:45:06.864Z,19.98
2022-11-15T01:52:42.235Z,19.96
2022-11-15T02:00:08.971Z,20
2022-11-15T02:07:40.463Z,19.86
2022-11-15T02:14:57.850Z,19.86
2022-11-15T02:22:48.777Z,19.79
2022-11-15T02:30:40.981Z,19.97
2022-11-15T02:38:44.465Z,19.97
2022-11-15T02:46:35.839Z,20.02
2022-11-15T02:53:55.017Z,20.12
2022-11-15T03:01:14.825Z,20.11
2022-11-15T03:08:40.134Z,20.17
2022-11-15T03:16:30.132Z,20.07
2022-11-15T03:24:23.360Z,20.04
2022-11-15T03:31:36.124Z,20.05
2022-11-15T03:39:20.681Z,19.86
2022-11-15T03:47:10.240Z,19.94
2022-11-15T03:54:49.887Z,19.69
2022-11-15T04:01:52.338Z,19.62
2022-11-15T04:09:07.471Z,19.58
2022-11-15T04:16:01.880Z,19.54
2022-11-15T04:23:30.936Z,19.54
2022-11-15T04:30:56.892Z,19.9
2022-11-15T04:37:58.604Z,20
2022-11-15T04:44:59.371Z,20.01
2022-11-15T04:52:13.891Z,19.94
2022-11-15T04:59:17.485Z,19.95
2022-11-15T05:06:29.948Z,19.97
2022-11-15T05:13:35.037Z,20.3
2022-11-15T05:19:59.097Z,20.38
2022-11-15T05:26:41.213Z,20.54
2022-11-15T05:33:14.827Z,20.46
2022-11-15T05:39:59.907Z,20.62
2022-11-15T05:46:36.198Z,20.41
2022-11-15T05:53:22.057Z,20.5
2022-11-15T05:59:59.400Z,20.4
2022-11-15T06:06:38.120Z,21.49
2022-11-15T06:13:14.564Z,21.97
2022-11-15T06:19:47.152Z,21.62
2022-11-15T06:26:20.085Z,21.66
2022-11-15T06:32:48.223Z,21.58
2022-11-15T06:39:22.935Z,21.65
2022-11-15T06:45:57.881Z,21.65
2022-11-15T06:52:27.010Z,21.67
2022-11-15T06:58:59.114Z,22.03
2022-11-15T07:05:36.507Z,22.33
2022-11-15T07:12:22.098Z,22.72
2022-11-15T07:18:53.026Z,23.1
2022-11-15T07:25:24.042Z,23.28
2022-11-15T07:31:56.860Z,22.89
2022-11-15T07:38:42.691Z,22.83
2022-11-15T07:45:10.155Z,22.63
2022-11-15T07:51:49.930Z,22.59
2022-11-15T07:58:26.026Z,22.79
2022-11-15T08:05:09.040Z,22.82
2022-11-15T08:11:56.071Z,22.65
2022-11-15T08:18:27.098Z,22.62
2022-11-15T08:24:55.189Z,22.35
2022-11-15T08:31:30.327Z,22.38
2022-11-15T08:38:12.080Z,22.41
2022-11-15T08:44:47.829Z,22.25
2022-11-15T08:51:15.984Z,22.04
2022-11-15T08:57:54.461Z,22.14
2022-11-15T09:04:28.721Z,22.01
2022-11-15T09:10:55.174Z,21.97
2022-11-15T09:17:33.081Z,21.83
2022-11-15T09:24:09.154Z,21.73
2022-11-15T09:30:45.374Z,21.82
2022-11-15T09:37:21.416Z,21.89
2022-11-15T09:44:25.810Z,21.85
2022-11-15T09:51:18.236Z,21.68
2022-11-15T09:58:19.333Z,21.69
2022-11-15T10:05:16.031Z,21.54
2022-11-15T10:12:18.263Z,21.65
2022-11-15T10:19:20.362Z,21.57
2022-11-15T10:26:25.265Z,21.55
2022-11-15T10:33:22.686Z,21.53
2022-11-15T10:40:13.491Z,21.65
2022-11-15T10:47:29.036Z,21.58
2022-11-15T10:54:41.281Z,21.57
2022-11-15T11:01:52.224Z,21.51
2022-11-15T11:08:56.660Z,21.58
2022-11-15T11:15:56.551Z,21.58
2022-11-15T11:23:16.635Z,21.51
2022-11-15T11:30:42.735Z,21.55
2022-11-15T11:37:45.160Z,21.55
2022-11-15T11:44:44.236Z,21.54
2022-11-15T11:51:55.609Z,21.54
2022-11-15T11:59:10.608Z,21.6
2022-11-15T12:06:28.200Z,21.59
2022-11-15T12:13:47.425Z,21.57
2022-11-15T12:20:42.727Z,21.67
2022-11-15T12:27:47.273Z,21.57
2022-11-15T12:35:00.283Z,21.61
2022-11-15T12:42:22.629Z,21.61
2022-11-15T12:49:30.133Z,21.46
2022-11-15T12:56:37.709Z,21.51
2022-11-15T13:03:43.686Z,21.62
2022-11-15T13:10:50.357Z,21.51
2022-11-15T13:17:54.811Z,21.61
2022-11-15T13:25:11.102Z,21.42
2022-11-15T13:32:20.547Z,21.5
2022-11-15T13:39:22.722Z,21.5
2022-11-15T13:46:18.253Z,21.75
2022-11-15T13:53:13.249Z,21.87
2022-11-15T14:00:17.196Z,21.82
2022-11-15T14:07:30.802Z,21.51
2022-11-15T14:14:35.411Z,21.47
2022-11-15T14:21:27.392Z,21.42
2022-11-15T14:28:36.787Z,21.51
2022-11-15T14:35:33.488Z,21.45
2022-11-15T14:42:21.370Z,21.53
2022-11-15T14:49:04.317Z,21.47
2022-11-15T14:55:46.256Z,21.43
2022-11-15T15:02:25.520Z,21.36
2022-11-15T15:09:11.490Z,21.46
2022-11-15T15:16:06.086Z,21.51
2022-11-15T15:22:50.831Z,21.46
2022-11-15T15:29:27.452Z,21.42
2022-11-15T15:36:11.957Z,21.4
2022-11-15T15:42:56.316Z,21.37
2022-11-15T15:49:33.421Z,21.41
2022-11-15T15:56:21.241Z,21.47
2022-11-15T16:03:14.685Z,21.47
2022-11-15T16:10:11.471Z,21.38
2022-11-15T16:16:52.245Z,21.35
2022-11-15T16:23:42.653Z,21.55
2022-11-15T16:30:21.523Z,21.52
2022-11-15T16:37:11.619Z,21.49
2022-11-15T16:43:42.281Z,21.42
2022-11-15T16:50:27.807Z,21.53
2022-11-15T16:56:59.608Z,21.55
2022-11-15T17:03:38.740Z,21.51
2022-11-15T17:10:07.473Z,21.42
2022-11-15T17:16:37.350Z,21.24
2022-11-15T17:23:06.658Z,21.17
2022-11-15T17:29:35.636Z,21.02
2022-11-15T17:35:59.438Z,21.07
2022-11-15T17:42:39.386Z,20.98
2022-11-15T17:49:20.047Z,20.98
2022-11-15T17:55:49.381Z,21.01
2022-11-15T18:02:21.772Z,21.01
2022-11-15T18:08:49.007Z,20.98
2022-11-15T18:15:21.298Z,21.01
2022-11-15T18:21:52.537Z,21.04
2022-11-15T18:28:47.527Z,21.08
2022-11-15T18:35:19.473Z,21.03
2022-11-15T18:42:11.506Z,21.16
2022-11-15T18:48:44.422Z,21.24
2022-11-15T18:55:10.374Z,21.16
2022-11-15T19:01:42.619Z,21.08
2022-11-15T19:08:20.317Z,20.95
2022-11-15T19:14:54.701Z,21.14
2022-11-15T19:21:31.718Z,21.11
2022-11-15T19:28:06.466Z,21.14
2022-11-15T19:34:39.936Z,21.06
2022-11-15T19:41:17.647Z,21.1
2022-11-15T19:47:49.359Z,21
2022-11-15T19:54:21.657Z,21
2022-11-15T20:00:50.958Z,20.97
2022-11-15T20:07:29.920Z,21.03
2022-11-15T20:14:06.344Z,21.07
2022-11-15T20:20:31.587Z,21.08
2022-11-15T20:27:08.492Z,21.02
2022-11-15T20:33:41.787Z,21.04
2022-11-15T20:40:08.151Z,20.95
2022-11-15T20:46:39.564Z,20.96
2022-11-15T20:53:02.679Z,20.94
2022-11-15T20:59:32.829Z,20.98
2022-11-15T21:06:05.444Z,20.92
2022-11-15T21:12:35.479Z,20.86
2022-11-15T21:18:58.654Z,20.84
2022-11-15T21:25:34.788Z,20.86
2022-11-15T21:32:05.671Z,20.88
2022-11-15T21:38:38.464Z,20.86
2022-11-15T21:45:18.296Z,20.92
2022-11-15T21:51:48.428Z,20.91
2022-11-15T21:58:20.597Z,20.86
2022-11-15T22:04:48.415Z,20.94
2022-11-15T22:11:12.471Z,21.03
2022-11-15T22:17:48.941Z,21.03
2022-11-15T22:24:20.793Z,20.97
2022-11-15T22:30:45.537Z,21.04
2022-11-15T22:37:20.223Z,20.96
2022-11-15T22:43:51.117Z,21.13
2022-11-15T22:50:31.574Z,21.04
2022-11-15T22:57:16.871Z,20.93
2022-11-15T23:03:58.380Z,21.01
2022-11-15T23:10:25.358Z,20.9
2022-11-15T23:17:05.739Z,21.03
2022-11-15T23:23:43.101Z,20.99
2022-11-15T23:30:17.857Z,20.94
2022-11-15T23:37:07.552Z,21
2022-11-15T23:43:44.468Z,20.88
2022-11-15T23:50:17.454Z,20.85
2022-11-15T23:56:53.486Z,20.88
